Time;durP1;ratioP1;P1;durP2;ratioP2;P2;SDS_P1;SDS_P2;PMS_P1;PMS_P2;Temp;Humidity;BMP_temperature;BMP_pressure;BME280_temperature;BME280_humidity;BME280_pressure;Samples;Min_cycle;Max_cycle;Signal;HPM_P1;HPM_P2
2023/09/20 00:02:26;;;;;;;0.40;0.40;;;;;;;;;;5045018;28;20043;-93
2023/09/20 00:04:52;;;;;;;0.10;0.10;;;;;;;;;;5028610;28;20719;-91
2023/09/20 00:07:18;;;;;;;0.10;0.10;;;;;;;;;;5025693;28;20052;-94
2023/09/20 00:09:45;;;;;;;0.13;0.13;;;;;;;;;;5023155;28;20060;-93
2023/09/20 00:12:11;;;;;;;0.20;0.20;;;;;;;;;;5032134;28;20441;-92
2023/09/20 00:14:37;;;;;;;0.17;0.17;;;;;;;;;;5023924;28;20489;-93
2023/09/20 00:17:04;;;;;;;0.20;0.20;;;;;;;;;;5018381;28;20036;-93
2023/09/20 00:19:30;;;;;;;0.20;0.20;;;;;;;;;;5022656;28;20037;-92
2023/09/20 00:21:56;;;;;;;0.10;0.10;;;;;;;;;;5037597;28;20041;-92
2023/09/20 00:24:22;;;;;;;0.20;0.20;;;;;;;;;;5043004;28;20048;-93
2023/09/20 00:26:51;;;;;;;0.20;0.20;;;;;;;;;;5028962;28;20454;-93
2023/09/20 00:29:17;;;;;;;0.20;0.20;;;;;;;;;;5020461;28;20041;-92
2023/09/20 00:31:44;;;;;;;0.20;0.20;;;;;;;;;;5027530;28;20059;-94
2023/09/20 00:34:11;;;;;;;0.20;0.20;;;;;;;;;;5011679;28;20079;-92
2023/09/20 00:36:37;;;;;;;0.20;0.20;;;;;;;;;;5017953;28;20166;-92
2023/09/20 00:39:03;;;;;;;0.20;0.20;;;;;;;;;;5023488;28;20045;-92
2023/09/20 00:41:31;;;;;;;0.20;0.20;;;;;;;;;;5021728;28;20017;-90
2023/09/20 00:43:58;;;;;;;0.20;0.20;;;;;;;;;;5034188;28;20033;-92
2023/09/20 00:46:24;;;;;;;0.17;0.17;;;;;;;;;;5010843;28;20037;-92
2023/09/20 00:48:51;;;;;;;0.10;0.10;;;;;;;;;;5019232;28;20030;-94
2023/09/20 00:51:21;;;;;;;0.17;0.17;;;;;;;;;;5017827;28;20537;-91
2023/09/20 00:53:48;;;;;;;0.10;0.10;;;;;;;;;;5014260;28;20075;-92
2023/09/20 00:56:14;;;;;;;0.20;0.20;;;;;;;;;;5011489;28;20048;-92
2023/09/20 00:58:43;;;;;;;0.10;0.10;;;;;;;;;;5026756;28;20103;-92
2023/09/20 01:01:10;;;;;;;0.20;0.20;;;;;;;;;;5019055;28;20052;-92
2023/09/20 01:03:36;;;;;;;0.10;0.10;;;;;;;;;;5033241;28;20494;-89
2023/09/20 01:06:05;;;;;;;0.10;0.10;;;;;;;;;;5027495;28;20033;-92
2023/09/20 01:08:32;;;;;;;0.20;0.20;;;;;;;;;;5015128;28;20413;-91
2023/09/20 01:10:59;;;;;;;0.10;0.10;;;;;;;;;;5006243;28;20141;-91
2023/09/20 01:13:25;;;;;;;0.10;0.10;;;;;;;;;;5022767;28;20045;-93
2023/09/20 01:15:52;;;;;;;0.20;0.20;;;;;;;;;;5024125;28;20061;-93
2023/09/20 01:18:18;;;;;;;0.10;0.10;;;;;;;;;;5007476;28;20095;-93
2023/09/20 01:20:45;;;;;;;0.20;0.20;;;;;;;;;;5006867;28;20077;-92
2023/09/20 01:23:11;;;;;;;0.15;0.15;;;;;;;;;;5006990;28;20040;-92
2023/09/20 01:25:39;;;;;;;0.10;0.10;;;;;;;;;;5005957;28;20040;-92
2023/09/20 01:28:06;;;;;;;0.10;0.10;;;;;;;;;;5021246;28;20041;-88
2023/09/20 01:30:33;;;;;;;0.20;0.20;;;;;;;;;;5038461;28;20119;-88
2023/09/20 01:33:02;;;;;;;0.17;0.17;;;;;;;;;;5020392;28;20048;-91
2023/09/20 01:35:29;;;;;;;0.10;0.10;;;;;;;;;;5022085;28;20041;-88
2023/09/20 01:37:55;;;;;;;0.10;0.10;;;;;;;;;;5023152;28;20041;-88
2023/09/20 01:40:25;;;;;;;0.15;0.15;;;;;;;;;;5022595;28;20055;-88
2023/09/20 01:42:52;;;;;;;0.20;0.20;;;;;;;;;;5024065;28;20040;-88
2023/09/20 01:45:18;;;;;;;0.30;0.30;;;;;;;;;;5022824;28;20096;-88
2023/09/20 01:47:45;;;;;;;0.13;0.13;;;;;;;;;;5040504;28;20063;-88
2023/09/20 01:50:19;;;;;;;0.20;0.20;;;;;;;;;;5023906;28;20043;-89
2023/09/20 01:52:49;;;;;;;0.30;0.30;;;;;;;;;;5022445;28;20060;-88
2023/09/20 01:55:17;;;;;;;0.17;0.17;;;;;;;;;;5022181;28;20037;-87
2023/09/20 01:57:46;;;;;;;0.10;0.10;;;;;;;;;;5023526;28;20066;-88
2023/09/20 02:00:16;;;;;;;0.10;0.10;;;;;;;;;;5039641;28;20049;-88
2023/09/20 02:02:43;;;;;;;0.13;0.13;;;;;;;;;;5023293;28;20040;-88
2023/09/20 02:05:10;;;;;;;0.05;0.05;;;;;;;;;;5022997;28;20051;-89
2023/09/20 02:07:37;;;;;;;0.10;0.10;;;;;;;;;;5022916;28;20078;-89
2023/09/20 02:10:07;;;;;;;0.10;0.10;;;;;;;;;;5022526;28;20025;-88
2023/09/20 02:12:34;;;;;;;0.17;0.17;;;;;;;;;;5023196;28;20041;-88
2023/09/20 02:15:00;;;;;;;0.15;0.15;;;;;;;;;;5022511;28;20025;-89
2023/09/20 02:17:28;;;;;;;0.20;0.20;;;;;;;;;;5032294;28;20064;-89
2023/09/20 02:19:54;;;;;;;0.10;0.10;;;;;;;;;;5010444;28;20073;-89
2023/09/20 02:22:20;;;;;;;0.10;0.10;;;;;;;;;;5022629;28;20049;-89
2023/09/20 02:24:46;;;;;;;0.10;0.10;;;;;;;;;;5007021;28;20401;-88
2023/09/20 02:27:13;;;;;;;0.20;0.20;;;;;;;;;;5039616;28;20039;-88
2023/09/20 02:29:39;;;;;;;0.15;0.15;;;;;;;;;;5023061;28;20052;-88
2023/09/20 02:32:05;;;;;;;0.15;0.15;;;;;;;;;;5022643;28;20048;-88
2023/09/20 02:34:31;;;;;;;0.10;0.10;;;;;;;;;;5003063;28;20585;-88
2023/09/20 02:36:57;;;;;;;0.10;0.10;;;;;;;;;;5003287;28;20045;-89
2023/09/20 02:39:24;;;;;;;0.20;0.20;;;;;;;;;;5005616;28;20120;-89
2023/09/20 02:41:50;;;;;;;0.20;0.20;;;;;;;;;;5006986;28;20056;-89
2023/09/20 02:44:16;;;;;;;0.20;0.20;;;;;;;;;;5006152;28;20042;-88
2023/09/20 02:46:42;;;;;;;0.15;0.15;;;;;;;;;;5006834;28;20494;-88
2023/09/20 02:49:08;;;;;;;0.28;0.28;;;;;;;;;;5026727;28;20072;-89
2023/09/20 02:51:35;;;;;;;0.20;0.20;;;;;;;;;;5028414;28;20033;-88
2023/09/20 02:54:01;;;;;;;0.25;0.25;;;;;;;;;;5024992;28;20056;-88
2023/09/20 02:56:28;;;;;;;0.20;0.20;;;;;;;;;;5013466;28;20044;-89
2023/09/20 02:58:54;;;;;;;0.30;0.30;;;;;;;;;;5022517;28;20045;-90
2023/09/20 03:01:20;;;;;;;0.10;0.10;;;;;;;;;;5005320;28;20673;-88
2023/09/20 03:03:46;;;;;;;0.17;0.17;;;;;;;;;;5005952;28;20398;-88
2023/09/20 03:06:12;;;;;;;0.20;0.20;;;;;;;;;;5006491;28;20060;-89
2023/09/20 03:08:44;;;;;;;0.10;0.10;;;;;;;;;;5022064;28;20119;-88
2023/09/20 03:11:11;;;;;;;0.30;0.30;;;;;;;;;;5042336;28;20123;-89
2023/09/20 03:13:37;;;;;;;0.10;0.10;;;;;;;;;;5025591;28;20068;-88
2023/09/20 03:16:04;;;;;;;0.20;0.20;;;;;;;;;;5025233;28;20045;-88
2023/09/20 03:18:33;;;;;;;0.20;0.20;;;;;;;;;;5016344;28;20052;-88
2023/09/20 03:21:10;;;;;;;0.20;0.20;;;;;;;;;;5014215;28;20044;-88
2023/09/20 03:23:37;;;;;;;0.20;0.20;;;;;;;;;;5025243;28;20416;-88
2023/09/20 03:26:04;;;;;;;0.20;0.20;;;;;;;;;;5022225;28;20584;-88
2023/09/20 03:28:33;;;;;;;0.20;0.20;;;;;;;;;;5017877;28;20040;-88
2023/09/20 03:31:05;;;;;;;0.10;0.10;;;;;;;;;;5042578;28;20119;-88
2023/09/20 03:33:31;;;;;;;0.10;0.10;;;;;;;;;;5025499;28;20120;-88
2023/09/20 03:36:02;;;;;;;0.10;0.10;;;;;;;;;;5015145;28;20083;-87
2023/09/20 03:38:28;;;;;;;0.10;0.10;;;;;;;;;;5035982;28;20041;-88
2023/09/20 03:40:54;;;;;;;0.20;0.20;;;;;;;;;;5025558;28;20049;-88
2023/09/20 03:43:20;;;;;;;0.15;0.15;;;;;;;;;;5024249;28;20094;-89
2023/09/20 03:45:46;;;;;;;0.10;0.10;;;;;;;;;;5041337;28;20540;-89
2023/09/20 03:48:12;;;;;;;0.10;0.10;;;;;;;;;;5015339;28;20045;-89
2023/09/20 03:50:43;;;;;;;0.15;0.15;;;;;;;;;;5004187;28;20042;-87
2023/09/20 03:53:10;;;;;;;0.10;0.10;;;;;;;;;;5005792;28;20126;-88
2023/09/20 03:55:37;;;;;;;0.20;0.20;;;;;;;;;;5021863;28;20038;-87
2023/09/20 03:58:03;;;;;;;0.20;0.20;;;;;;;;;;5005335;28;20021;-87
2023/09/20 04:00:31;;;;;;;0.30;0.30;;;;;;;;;;5007000;28;20041;-87
2023/09/20 04:02:58;;;;;;;0.20;0.20;;;;;;;;;;5039070;28;20040;-88
2023/09/20 04:05:25;;;;;;;0.20;0.20;;;;;;;;;;5023193;28;20414;-87
2023/09/20 04:07:51;;;;;;;0.20;0.20;;;;;;;;;;5023072;28;20041;-87
2023/09/20 04:10:18;;;;;;;0.20;0.20;;;;;;;;;;5023690;28;20033;-87
2023/09/20 04:12:45;;;;;;;0.20;0.20;;;;;;;;;;5024768;28;20115;-86
2023/09/20 04:15:12;;;;;;;0.20;0.20;;;;;;;;;;5024107;28;20083;-87
2023/09/20 04:17:38;;;;;;;0.20;0.20;;;;;;;;;;5020035;28;20544;-86
2023/09/20 04:20:05;;;;;;;0.10;0.10;;;;;;;;;;5024669;28;20041;-87
2023/09/20 04:22:31;;;;;;;0.20;0.20;;;;;;;;;;5024658;28;20045;-88
2023/09/20 04:24:58;;;;;;;0.15;0.15;;;;;;;;;;5040044;28;20052;-85
2023/09/20 04:27:24;;;;;;;0.20;0.20;;;;;;;;;;5039103;28;20043;-89
2023/09/20 04:29:50;;;;;;;0.20;0.20;;;;;;;;;;5004980;28;20128;-87
2023/09/20 04:32:17;;;;;;;0.10;0.10;;;;;;;;;;5019932;28;20092;-87
2023/09/20 04:34:44;;;;;;;0.10;0.10;;;;;;;;;;5003389;28;20045;-86
2023/09/20 04:37:12;;;;;;;0.10;0.10;;;;;;;;;;5007491;28;20041;-87
2023/09/20 04:39:39;;;;;;;0.20;0.20;;;;;;;;;;5024448;28;20072;-88
2023/09/20 04:42:06;;;;;;;0.20;0.20;;;;;;;;;;5024765;28;20076;-86
2023/09/20 04:44:32;;;;;;;0.17;0.17;;;;;;;;;;5023433;28;20041;-87
2023/09/20 04:46:58;;;;;;;0.20;0.20;;;;;;;;;;5024232;28;20409;-88
2023/09/20 04:49:24;;;;;;;0.22;0.22;;;;;;;;;;5024173;28;20041;-86
2023/09/20 04:51:51;;;;;;;0.20;0.20;;;;;;;;;;5024548;28;20128;-87
2023/09/20 04:54:19;;;;;;;0.20;0.20;;;;;;;;;;5039399;28;20041;-87
2023/09/20 04:56:47;;;;;;;0.30;0.30;;;;;;;;;;5024412;28;20087;-88
2023/09/20 04:59:16;;;;;;;0.17;0.17;;;;;;;;;;5024266;28;20114;-87
2023/09/20 05:01:45;;;;;;;0.03;0.03;;;;;;;;;;5023115;28;20044;-88
2023/09/20 05:04:15;;;;;;;0.10;0.10;;;;;;;;;;5023184;28;20045;-88
2023/09/20 05:06:42;;;;;;;0.20;0.20;;;;;;;;;;5023698;28;20080;-88
2023/09/20 05:09:08;;;;;;;0.20;0.20;;;;;;;;;;5039640;28;20088;-87
2023/09/20 05:11:35;;;;;;;0.10;0.10;;;;;;;;;;5023359;28;20027;-88
2023/09/20 05:14:01;;;;;;;0.15;0.15;;;;;;;;;;5023202;28;20033;-86
2023/09/20 05:16:27;;;;;;;0.22;0.22;;;;;;;;;;5022524;28;20124;-87
2023/09/20 05:18:53;;;;;;;0.20;0.20;;;;;;;;;;5022003;28;20044;-87
2023/09/20 05:21:19;;;;;;;0.10;0.10;;;;;;;;;;5010483;28;20033;-87
2023/09/20 05:23:46;;;;;;;0.20;0.20;;;;;;;;;;5054843;28;20086;-87
2023/09/20 05:26:12;;;;;;;0.10;0.10;;;;;;;;;;5039106;28;20040;-87
2023/09/20 05:28:38;;;;;;;0.28;0.28;;;;;;;;;;5038471;28;20036;-87
2023/09/20 05:31:05;;;;;;;0.20;0.20;;;;;;;;;;5038652;28;20043;-87
2023/09/20 05:33:31;;;;;;;0.10;0.10;;;;;;;;;;5037613;28;20102;-86
2023/09/20 05:35:58;;;;;;;0.17;0.17;;;;;;;;;;5037748;28;20127;-86
2023/09/20 05:38:25;;;;;;;0.10;0.10;;;;;;;;;;5037827;28;20140;-86
2023/09/20 05:40:51;;;;;;;0.30;0.30;;;;;;;;;;5019316;28;20154;-87
2023/09/20 05:43:17;;;;;;;0.20;0.20;;;;;;;;;;5019796;28;20048;-87
2023/09/20 05:45:43;;;;;;;0.10;0.10;;;;;;;;;;5052121;28;20048;-87
2023/09/20 05:48:12;;;;;;;0.30;0.30;;;;;;;;;;5036609;28;20402;-87
2023/09/20 05:50:40;;;;;;;0.20;0.20;;;;;;;;;;5037689;28;20072;-87
2023/09/20 05:53:10;;;;;;;0.10;0.10;;;;;;;;;;5037529;28;20037;-86
2023/09/20 05:55:37;;;;;;;0.10;0.10;;;;;;;;;;5036650;28;20072;-86
2023/09/20 05:58:04;;;;;;;0.10;0.10;;;;;;;;;;5037910;28;20451;-87
2023/09/20 06:00:30;;;;;;;0.47;0.47;;;;;;;;;;5037302;28;20048;-87
2023/09/20 06:02:59;;;;;;;0.20;0.20;;;;;;;;;;5037682;28;20585;-87
2023/09/20 06:05:26;;;;;;;0.20;0.20;;;;;;;;;;5054895;28;20053;-87
2023/09/20 06:07:53;;;;;;;0.10;0.10;;;;;;;;;;5037369;28;20044;-89
2023/09/20 06:10:20;;;;;;;0.10;0.10;;;;;;;;;;5054213;28;20053;-88
2023/09/20 06:12:46;;;;;;;0.25;0.25;;;;;;;;;;5038798;28;20029;-88
2023/09/20 06:15:15;;;;;;;0.10;0.10;;;;;;;;;;5042603;28;20490;-87
2023/09/20 06:17:42;;;;;;;0.20;0.20;;;;;;;;;;5043911;28;20076;-88
2023/09/20 06:20:11;;;;;;;0.10;0.10;;;;;;;;;;5060798;28;20051;-86
2023/09/20 06:22:37;;;;;;;0.20;0.20;;;;;;;;;;5043188;28;20045;-89
2023/09/20 06:25:13;;;;;;;0.30;0.30;;;;;;;;;;5058335;28;20043;-91
2023/09/20 06:27:40;;;;;;;0.20;0.20;;;;;;;;;;5027616;28;20101;-90
2023/09/20 06:30:12;;;;;;;0.15;0.15;;;;;;;;;;5026168;28;20037;-87
2023/09/20 06:32:38;;;;;;;0.20;0.20;;;;;;;;;;5026299;28;20041;-89
2023/09/20 06:35:05;;;;;;;0.10;0.10;;;;;;;;;;5041653;28;20410;-90
2023/09/20 06:37:31;;;;;;;0.20;0.20;;;;;;;;;;5016929;28;20033;-89
2023/09/20 06:39:57;;;;;;;0.35;0.35;;;;;;;;;;5006724;28;20049;-89
2023/09/20 06:42:29;;;;;;;0.10;0.10;;;;;;;;;;5006947;28;20042;-89
2023/09/20 06:44:55;;;;;;;0.15;0.15;;;;;;;;;;5005990;28;20041;-88
2023/09/20 06:47:22;;;;;;;0.10;0.10;;;;;;;;;;5016538;28;20045;-90
2023/09/20 06:49:48;;;;;;;0.10;0.10;;;;;;;;;;5023608;28;20041;-87
2023/09/20 06:52:14;;;;;;;0.30;0.30;;;;;;;;;;5047709;28;20121;-88
2023/09/20 06:54:40;;;;;;;0.20;0.20;;;;;;;;;;5042065;28;20488;-88
2023/09/20 06:57:06;;;;;;;0.10;0.10;;;;;;;;;;5042544;28;20375;-88
2023/09/20 06:59:33;;;;;;;0.20;0.20;;;;;;;;;;5043049;28;20497;-86
2023/09/20 07:01:59;;;;;;;0.10;0.10;;;;;;;;;;5042811;28;20175;-89
2023/09/20 07:04:26;;;;;;;0.20;0.20;;;;;;;;;;5041474;28;20131;-90
2023/09/20 07:07:01;;;;;;;0.10;0.10;;;;;;;;;;5042697;28;20452;-89
2023/09/20 07:09:31;;;;;;;0.10;0.10;;;;;;;;;;5027928;28;20127;-90
2023/09/20 07:11:57;;;;;;;0.10;0.10;;;;;;;;;;5027351;28;20051;-89
2023/09/20 07:14:23;;;;;;;0.10;0.10;;;;;;;;;;5026384;28;20097;-86
2023/09/20 07:16:53;;;;;;;0.20;0.20;;;;;;;;;;5026074;28;20075;-89
2023/09/20 07:19:22;;;;;;;0.10;0.10;;;;;;;;;;5026374;28;20044;-88
2023/09/20 07:21:48;;;;;;;0.10;0.10;;;;;;;;;;5026214;28;20037;-88
2023/09/20 07:24:15;;;;;;;0.10;0.10;;;;;;;;;;5042095;28;20044;-91
2023/09/20 07:26:45;;;;;;;0.10;0.10;;;;;;;;;;5041601;28;20048;-89
2023/09/20 07:29:12;;;;;;;0.08;0.08;;;;;;;;;;5025991;28;20047;-89
2023/09/20 07:31:38;;;;;;;0.20;0.20;;;;;;;;;;5037383;28;20418;-88
2023/09/20 07:34:06;;;;;;;0.08;0.08;;;;;;;;;;5024179;28;20032;-88
2023/09/20 07:36:40;;;;;;;0.20;0.20;;;;;;;;;;5024849;28;20040;-88
2023/09/20 07:39:08;;;;;;;0.25;0.25;;;;;;;;;;5024665;28;20037;-89
2023/09/20 07:41:34;;;;;;;0.08;0.08;;;;;;;;;;5041135;28;20052;-89
2023/09/20 07:44:00;;;;;;;0.20;0.20;;;;;;;;;;5042101;28;20045;-88
2023/09/20 07:46:26;;;;;;;0.10;0.10;;;;;;;;;;5026635;28;20080;-91
2023/09/20 07:48:55;;;;;;;0.22;0.22;;;;;;;;;;5027477;28;20052;-91
2023/09/20 07:51:28;;;;;;;0.10;0.10;;;;;;;;;;5026272;28;20489;-91
2023/09/20 07:53:55;;;;;;;0.10;0.10;;;;;;;;;;5039858;28;20390;-92
2023/09/20 07:56:21;;;;;;;0.13;0.13;;;;;;;;;;5026350;28;20486;-92
2023/09/20 07:58:47;;;;;;;0.20;0.20;;;;;;;;;;5025428;28;20048;-86
2023/09/20 08:01:21;;;;;;;0.10;0.10;;;;;;;;;;5020099;28;20074;-89
2023/09/20 08:03:52;;;;;;;0.20;0.20;;;;;;;;;;5029620;28;20068;-90
2023/09/20 08:06:18;;;;;;;0.20;0.20;;;;;;;;;;5011865;28;20127;-89
2023/09/20 08:08:44;;;;;;;0.10;0.10;;;;;;;;;;5035404;28;20127;-89
2023/09/20 08:11:10;;;;;;;0.10;0.10;;;;;;;;;;5031626;28;20087;-89
2023/09/20 08:13:36;;;;;;;0.20;0.20;;;;;;;;;;5034452;28;20041;-88
2023/09/20 08:16:02;;;;;;;0.30;0.30;;;;;;;;;;5019547;28;20076;-87
2023/09/20 08:21:13;;;;;;;0.10;0.10;;;;;;;;;;5032499;28;20033;-87
2023/09/20 09:00:21;;;;;;;0.10;0.10;;;;;;;;;;5040956;28;20534;-89
2023/09/20 09:02:57;;;;;;;0.30;0.30;;;;;;;;;;5026800;28;20579;-89
2023/09/20 09:05:29;;;;;;;0.10;0.10;;;;;;;;;;5017523;28;20506;-89
2023/09/20 09:07:59;;;;;;;0.10;0.10;;;;;;;;;;5017834;28;20478;-88
2023/09/20 09:10:25;;;;;;;0.20;0.20;;;;;;;;;;5020488;28;20057;-89
2023/09/20 09:12:51;;;;;;;0.20;0.20;;;;;;;;;;5023930;28;20041;-89
2023/09/20 09:15:18;;;;;;;0.20;0.20;;;;;;;;;;5035944;28;20478;-87
2023/09/20 09:17:50;;;;;;;0.20;0.20;;;;;;;;;;5015961;28;20405;-88
2023/09/20 09:20:25;;;;;;;0.20;0.20;;;;;;;;;;5025317;28;20045;-89
2023/09/20 09:23:22;;;;;;;0.10;0.10;;;;;;;;;;5030579;28;20040;-91
2023/09/20 09:25:55;;;;;;;0.05;0.05;;;;;;;;;;5024467;28;20140;-86
2023/09/20 09:28:21;;;;;;;0.30;0.30;;;;;;;;;;5031311;28;20045;-86
2023/09/20 09:30:49;;;;;;;0.20;0.20;;;;;;;;;;5018024;28;20041;-89
2023/09/20 09:33:16;;;;;;;0.10;0.10;;;;;;;;;;5020602;28;20041;-90
2023/09/20 09:35:45;;;;;;;0.20;0.20;;;;;;;;;;5024936;28;20041;-90
2023/09/20 09:38:12;;;;;;;0.20;0.20;;;;;;;;;;5044309;28;20037;-91
2023/09/20 09:40:56;;;;;;;0.20;0.20;;;;;;;;;;5014620;28;20402;-89
2023/09/20 09:43:25;;;;;;;0.10;0.10;;;;;;;;;;5026462;28;20459;-89
2023/09/20 09:45:55;;;;;;;0.13;0.13;;;;;;;;;;5011185;28;20045;-87
2023/09/20 09:48:24;;;;;;;0.10;0.10;;;;;;;;;;5019519;28;20076;-87
2023/09/20 09:50:50;;;;;;;0.30;0.30;;;;;;;;;;5019803;28;20029;-89
2023/09/20 09:53:20;;;;;;;0.30;0.30;;;;;;;;;;5029527;28;20037;-88
2023/09/20 09:55:56;;;;;;;0.20;0.20;;;;;;;;;;5010020;28;20079;-92
2023/09/20 09:58:22;;;;;;;0.20;0.20;;;;;;;;;;5032163;28;20037;-92
2023/09/20 10:00:50;;;;;;;0.20;0.20;;;;;;;;;;5023354;28;20029;-92
2023/09/20 10:03:29;;;;;;;0.20;0.20;;;;;;;;;;5031352;28;20068;-87
2023/09/20 10:06:01;;;;;;;0.10;0.10;;;;;;;;;;5036342;28;20402;-91
2023/09/20 10:08:29;;;;;;;0.10;0.10;;;;;;;;;;5018850;28;20441;-90
2023/09/20 10:11:00;;;;;;;0.10;0.10;;;;;;;;;;5036264;28;20049;-89
2023/09/20 10:13:29;;;;;;;0.13;0.13;;;;;;;;;;5026718;28;20048;-90
2023/09/20 10:15:57;;;;;;;0.10;0.10;;;;;;;;;;5025698;28;20037;-90
2023/09/20 10:18:24;;;;;;;0.08;0.08;;;;;;;;;;5019513;28;20104;-90
2023/09/20 10:20:58;;;;;;;0.13;0.13;;;;;;;;;;5020656;28;20048;-90
2023/09/20 10:23:24;;;;;;;0.10;0.10;;;;;;;;;;5022341;28;20044;-90
2023/09/20 10:25:53;;;;;;;0.20;0.20;;;;;;;;;;5026004;28;20051;-89
2023/09/20 10:28:19;;;;;;;0.15;0.15;;;;;;;;;;5020417;28;20052;-88
2023/09/20 10:31:03;;;;;;;0.10;0.10;;;;;;;;;;5021515;28;20037;-89
2023/09/20 10:33:48;;;;;;;0.10;0.10;;;;;;;;;;5025116;28;20045;-89
2023/09/20 10:36:21;;;;;;;0.20;0.20;;;;;;;;;;5026180;28;20048;-90
2023/09/20 10:38:47;;;;;;;0.03;0.03;;;;;;;;;;5020507;28;20141;-90
2023/09/20 10:41:14;;;;;;;0.20;0.20;;;;;;;;;;5024307;28;20045;-90
2023/09/20 10:43:43;;;;;;;0.10;0.10;;;;;;;;;;5024313;28;20041;-90
2023/09/20 10:46:12;;;;;;;0.10;0.10;;;;;;;;;;5023627;28;20528;-89
2023/09/20 10:48:49;;;;;;;0.30;0.30;;;;;;;;;;5024560;28;20041;-91
2023/09/20 10:51:34;;;;;;;0.20;0.20;;;;;;;;;;5024976;28;20029;-91
2023/09/20 10:54:03;;;;;;;0.10;0.10;;;;;;;;;;5024607;28;20091;-92
2023/09/20 10:56:49;;;;;;;0.13;0.13;;;;;;;;;;5024350;28;20041;-90
2023/09/20 10:59:18;;;;;;;0.20;0.20;;;;;;;;;;5025129;28;20076;-91
2023/09/20 11:01:52;;;;;;;0.10;0.10;;;;;;;;;;5028022;28;20064;-92
2023/09/20 11:04:19;;;;;;;0.17;0.17;;;;;;;;;;5029424;28;20067;-92
2023/09/20 11:06:49;;;;;;;0.00;0.00;;;;;;;;;;5028868;28;20101;-92
2023/09/20 11:09:15;;;;;;;0.30;0.30;;;;;;;;;;5029514;28;20124;-93
2023/09/20 11:11:44;;;;;;;0.20;0.20;;;;;;;;;;5028881;28;20108;-93
2023/09/20 11:14:10;;;;;;;0.20;0.20;;;;;;;;;;5030284;28;20063;-95
2023/09/20 11:16:41;;;;;;;0.10;0.10;;;;;;;;;;5027077;28;20127;-91
2023/09/20 11:19:08;;;;;;;0.30;0.30;;;;;;;;;;5043241;28;20146;-90
2023/09/20 11:21:34;;;;;;;0.10;0.10;;;;;;;;;;5027067;28;20124;-92
2023/09/20 11:24:00;;;;;;;0.03;0.03;;;;;;;;;;5043666;28;20052;-89
2023/09/20 11:26:30;;;;;;;0.10;0.10;;;;;;;;;;5028366;28;20048;-88
2023/09/20 11:28:56;;;;;;;0.20;0.20;;;;;;;;;;5028424;28;20402;-90
2023/09/20 11:31:28;;;;;;;0.10;0.10;;;;;;;;;;5028550;28;20045;-91
2023/09/20 11:33:58;;;;;;;0.10;0.10;;;;;;;;;;5028131;28;20040;-90
2023/09/20 11:36:24;;;;;;;0.10;0.10;;;;;;;;;;5056272;28;20123;-90
2023/09/20 11:38:51;;;;;;;0.10;0.10;;;;;;;;;;5040316;28;20040;-90
2023/09/20 11:41:18;;;;;;;0.10;0.10;;;;;;;;;;5027423;28;20316;-90
2023/09/20 11:43:49;;;;;;;0.20;0.20;;;;;;;;;;5026308;28;20025;-92
2023/09/20 11:46:18;;;;;;;0.20;0.20;;;;;;;;;;5032422;28;20037;-88
2023/09/20 11:48:44;;;;;;;0.22;0.22;;;;;;;;;;5023950;28;20086;-86
2023/09/20 11:51:11;;;;;;;0.10;0.10;;;;;;;;;;5025208;28;20033;-87
2023/09/20 11:53:37;;;;;;;0.10;0.10;;;;;;;;;;5040962;28;20045;-87
2023/09/20 11:56:04;;;;;;;0.20;0.20;;;;;;;;;;5049200;28;20406;-87
2023/09/20 11:58:34;;;;;;;0.10;0.10;;;;;;;;;;5042843;28;20393;-86
2023/09/20 12:01:03;;;;;;;0.10;0.10;;;;;;;;;;5033981;28;20056;-87
2023/09/20 12:03:29;;;;;;;0.03;0.03;;;;;;;;;;5039935;28;20052;-86
2023/09/20 12:05:55;;;;;;;0.20;0.20;;;;;;;;;;5024804;28;20080;-87
2023/09/20 12:08:22;;;;;;;0.00;0.00;;;;;;;;;;5024220;28;20401;-86
2023/09/20 12:10:48;;;;;;;0.20;0.20;;;;;;;;;;5028892;28;20033;-87
2023/09/20 12:13:14;;;;;;;0.17;0.17;;;;;;;;;;5041076;28;20052;-88
2023/09/20 12:15:43;;;;;;;0.28;0.28;;;;;;;;;;5040876;28;20416;-89
2023/09/20 12:18:13;;;;;;;0.10;0.10;;;;;;;;;;5041338;28;20056;-89
2023/09/20 12:20:39;;;;;;;0.00;0.00;;;;;;;;;;5041455;28;20087;-89
2023/09/20 12:23:06;;;;;;;0.10;0.10;;;;;;;;;;5042225;28;20021;-89
2023/09/20 12:25:32;;;;;;;0.10;0.10;;;;;;;;;;5040566;28;20045;-86
2023/09/20 12:27:58;;;;;;;0.13;0.13;;;;;;;;;;5040643;28;20095;-88
2023/09/20 12:30:28;;;;;;;0.05;0.05;;;;;;;;;;5044741;28;20040;-87
2023/09/20 12:32:57;;;;;;;0.13;0.13;;;;;;;;;;5025743;28;20094;-87
2023/09/20 12:35:23;;;;;;;0.10;0.10;;;;;;;;;;5025304;28;20037;-88
2023/09/20 12:37:49;;;;;;;0.10;0.10;;;;;;;;;;5024470;28;20037;-89
2023/09/20 12:40:17;;;;;;;0.05;0.05;;;;;;;;;;5025999;28;20104;-89
2023/09/20 12:42:44;;;;;;;0.10;0.10;;;;;;;;;;5042976;28;20044;-89
2023/09/20 12:45:10;;;;;;;0.10;0.10;;;;;;;;;;5041135;28;20048;-89
2023/09/20 12:47:41;;;;;;;0.13;0.13;;;;;;;;;;5025277;28;20048;-93
2023/09/20 12:50:08;;;;;;;0.10;0.10;;;;;;;;;;5024634;28;20127;-90
2023/09/20 12:52:34;;;;;;;0.10;0.10;;;;;;;;;;5024171;28;20045;-88
2023/09/20 12:55:00;;;;;;;0.10;0.10;;;;;;;;;;5025290;28;20467;-90
2023/09/20 12:57:26;;;;;;;0.10;0.10;;;;;;;;;;5025383;28;20083;-88
2023/09/20 12:59:53;;;;;;;0.20;0.20;;;;;;;;;;5024986;28;20067;-88
2023/09/20 13:02:19;;;;;;;0.10;0.10;;;;;;;;;;5055444;28;20041;-88
2023/09/20 13:04:48;;;;;;;0.10;0.10;;;;;;;;;;5040985;28;20056;-90
2023/09/20 13:07:15;;;;;;;0.10;0.10;;;;;;;;;;5028701;28;20041;-90
2023/09/20 13:09:42;;;;;;;0.10;0.10;;;;;;;;;;5024951;28;20436;-87
2023/09/20 13:12:08;;;;;;;0.10;0.10;;;;;;;;;;5036764;28;20037;-88
2023/09/20 13:14:34;;;;;;;0.10;0.10;;;;;;;;;;5041046;28;20040;-90
2023/09/20 13:17:00;;;;;;;0.10;0.10;;;;;;;;;;5008319;28;20037;-89
2023/09/20 13:19:26;;;;;;;0.00;0.00;;;;;;;;;;5006020;28;20426;-92
2023/09/20 13:21:52;;;;;;;0.10;0.10;;;;;;;;;;5033920;28;20048;-91
2023/09/20 13:24:19;;;;;;;0.10;0.10;;;;;;;;;;5039543;28;20062;-92
2023/09/20 13:26:45;;;;;;;0.10;0.10;;;;;;;;;;5029553;28;20090;-92
2023/09/20 13:29:14;;;;;;;0.25;0.25;;;;;;;;;;5041178;28;20094;-91
2023/09/20 13:31:41;;;;;;;0.10;0.10;;;;;;;;;;5024439;28;20037;-91
2023/09/20 13:34:14;;;;;;;0.20;0.20;;;;;;;;;;5024137;28;20057;-92
2023/09/20 13:36:40;;;;;;;0.08;0.08;;;;;;;;;;5025909;28;20064;-92
2023/09/20 13:39:06;;;;;;;0.10;0.10;;;;;;;;;;5025549;28;20412;-91
2023/09/20 13:41:32;;;;;;;0.10;0.10;;;;;;;;;;5025185;28;20071;-91
2023/09/20 13:43:58;;;;;;;0.20;0.20;;;;;;;;;;5025763;28;20049;-91
2023/09/20 13:46:38;;;;;;;0.17;0.17;;;;;;;;;;5025774;28;20078;-90
2023/09/20 13:49:06;;;;;;;0.10;0.10;;;;;;;;;;5026071;28;20100;-91
2023/09/20 13:51:32;;;;;;;0.15;0.15;;;;;;;;;;5026223;28;20063;-90
2023/09/20 13:53:58;;;;;;;0.20;0.20;;;;;;;;;;5025070;28;20037;-91
2023/09/20 13:56:27;;;;;;;0.10;0.10;;;;;;;;;;5024438;28;20043;-93
2023/09/20 13:58:54;;;;;;;0.05;0.05;;;;;;;;;;5016981;28;20037;-93
2023/09/20 14:01:21;;;;;;;0.00;0.00;;;;;;;;;;5030303;28;20075;-93
2023/09/20 14:03:48;;;;;;;0.10;0.10;;;;;;;;;;5042478;28;20037;-90
2023/09/20 14:06:16;;;;;;;0.03;0.03;;;;;;;;;;5038173;28;20036;-90
2023/09/20 14:08:42;;;;;;;0.25;0.25;;;;;;;;;;5025258;28;20316;-89
2023/09/20 14:11:09;;;;;;;0.10;0.10;;;;;;;;;;5038499;28;20051;-88
2023/09/20 14:13:36;;;;;;;0.00;0.00;;;;;;;;;;5024410;28;20041;-88
2023/09/20 14:16:02;;;;;;;0.10;0.10;;;;;;;;;;5060097;28;20076;-89
2023/09/20 14:18:29;;;;;;;0.20;0.20;;;;;;;;;;5044455;28;20037;-88
2023/09/20 14:20:55;;;;;;;0.00;0.00;;;;;;;;;;5044185;28;20051;-88
2023/09/20 14:23:21;;;;;;;0.10;0.10;;;;;;;;;;5044243;28;20048;-91
2023/09/20 14:25:47;;;;;;;0.20;0.20;;;;;;;;;;5044945;28;20048;-90
2023/09/20 14:28:14;;;;;;;0.10;0.10;;;;;;;;;;5044553;28;20037;-90
2023/09/20 14:30:40;;;;;;;0.05;0.05;;;;;;;;;;5044450;28;20079;-90
2023/09/20 14:33:08;;;;;;;0.20;0.20;;;;;;;;;;5044725;28;20047;-90
2023/09/20 14:35:34;;;;;;;0.20;0.20;;;;;;;;;;5038306;28;20096;-89
2023/09/20 14:38:00;;;;;;;0.20;0.20;;;;;;;;;;5031589;28;20037;-92
2023/09/20 14:40:26;;;;;;;0.00;0.00;;;;;;;;;;5028656;28;20507;-88
2023/09/20 14:42:55;;;;;;;0.08;0.08;;;;;;;;;;5028413;28;20135;-88
2023/09/20 14:45:22;;;;;;;0.10;0.10;;;;;;;;;;5026630;28;20033;-89
2023/09/20 14:47:51;;;;;;;0.00;0.00;;;;;;;;;;5027798;28;20052;-88
2023/09/20 14:50:18;;;;;;;0.20;0.20;;;;;;;;;;5027866;28;20045;-87
2023/09/20 14:52:46;;;;;;;0.10;0.10;;;;;;;;;;5044491;28;20028;-86
2023/09/20 14:55:13;;;;;;;0.10;0.10;;;;;;;;;;5027126;28;20079;-88
2023/09/20 14:57:41;;;;;;;0.15;0.15;;;;;;;;;;5026841;28;20091;-88
2023/09/20 15:00:08;;;;;;;0.10;0.10;;;;;;;;;;5030911;28;20041;-88
2023/09/20 15:02:34;;;;;;;0.10;0.10;;;;;;;;;;5027320;28;20045;-88
2023/09/20 15:05:01;;;;;;;0.20;0.20;;;;;;;;;;5027393;28;20489;-88
2023/09/20 15:07:29;;;;;;;0.05;0.05;;;;;;;;;;5027356;28;20490;-88
2023/09/20 15:09:55;;;;;;;0.10;0.10;;;;;;;;;;5027749;28;20080;-88
2023/09/20 15:12:21;;;;;;;0.10;0.10;;;;;;;;;;5027943;28;20045;-88
2023/09/20 15:14:47;;;;;;;0.20;0.20;;;;;;;;;;5026965;28;20032;-88
2023/09/20 15:17:14;;;;;;;0.10;0.10;;;;;;;;;;5026791;28;20029;-88
2023/09/20 15:19:40;;;;;;;0.10;0.10;;;;;;;;;;5026401;28;20041;-88
2023/09/20 15:22:10;;;;;;;0.10;0.10;;;;;;;;;;5026347;28;20045;-89
2023/09/20 15:24:37;;;;;;;0.10;0.10;;;;;;;;;;5027082;28;20045;-88
2023/09/20 15:27:03;;;;;;;0.10;0.10;;;;;;;;;;5027362;28;20040;-88